首页
METAR-TAF:

METAR-TAF

机场 :

Ozark, 阿拉巴马州, 美国

纬度: 31-17N, 经度: 085-43W, 海拔: 91米

当前天气观测

该预报发布于30分钟前的00:56 UTC
静风
温度 17°C
湿度 82%
气压 1017 hPa
能見度: 16.1公里
散云层高于16000英尺

METAR: KOZR 120056Z AUTO 00000KT 10SM SCT160 17/14 A3004 RMK AO2 SLP175 T01710140

时间: 19:26 (01:26 UTC)


TAF: 丢失

超过4000个机场的气象观测和天气预报(METAR&TAF报告)。

可查询的气象台以黄色和红色小点在地图上表示。

将鼠标移到小点上方,可查看气象台名称。

然后点击查看天气观测和预报。

如需切换地图:点击带黑十字的绿色按钮放大地图;点击带横线的绿色按钮缩小地图;或者点击绿色箭头查看邻近地区的地图。


METAR-TAF: